Detall de PIREP

Printer-friendly versionPDF version

[2013/05/01 17:02:00]
Flight IATA:CT2114
Pilot Number:012
Company ICAO:CAT
Aircraft Type:F50/A
PAX:50
Aircraft Registration:PAOB
Departing Airport: LEVC
Destination Airport: LEXJ
Alternate Airport:LEAS
Online: VATSIM
Route:CENTA A33 VEMAK N867 VRA H210 ROLES
Flight Level:F240
No Slew and time accel
No pause
Crash detect
Detect pilot in Cockpit between each 30 and 45 minutes
17:02 Zero fuel Weight: 36201 Lbs, Fuel Weight: 3509 Lbs
17:02 VATSIM:LEVC 011630Z 13009KT 080V160 9999 FEW040 17/10 Q1015 NOSIG
17:02 VATSIM:LEXJ 011630Z 26009KT 230V290 9999 SCT016 BKN040 11/10 Q1018
17:02 VOICE CATALONIAN
17:04 Parking Brakes off
17:08 Take-off
17:08 Take off Weight: 39634 Lbs
17:08 Wind: 126º @ 009 Knots Heading: 115º
17:08 POS N39º 29´ 32´´ W000º 29´ 25´´
17:08 Gear Up: 121 Knots
17:08 Flaps:2 at 121 Knots
17:08 Flaps:1 at 130 Knots
17:08 Flaps:0 at 138 Knots
17:23 Wind:234º@024 Knots Heading: 308º Ground Speed: 206 Knots Altitude 19333 ft
17:38 Wind:238º@049 Knots Heading: 289º Ground Speed: 229 Knots Altitude 23051 ft
17:53 Wind:253º@043 Knots Heading: 290º Ground Speed: 223 Knots Altitude 23087 ft
18:08 Wind:353º@025 Knots Heading: 008º Ground Speed: 231 Knots Altitude 23093 ft
18:14 TOC
18:14 Fuel Weight: 1593 Lb
18:23 Wind:026º@025 Knots Heading: 010º Ground Speed: 233 Knots Altitude 24120 ft
18:29 TOD
18:29 Fuel Weight: 1237 Lb
18:38 Wind:020º@014 Knots Heading: 321º Ground Speed: 239 Knots Altitude 10803 ft
18:45 Flaps:1 at 156 Knots
18:45 Flaps:2 at 147 Knots
18:45 Flaps:3 at 145 Knots
18:46 Gear Down: 137 Knots
18:46 Flaps:4 at 125 Knots
18:47 Flaps:5 at 124 Knots
18:47 Flaps:6 at 119 Knots
18:50 TouchDown:Rate -259 ft/min Speed: 103 Knots
18:51 Flaps:2 at 63 Knots
18:51 Flaps:0 at 62 Knots
18:51 VATSIM:LEXJ 011830Z 26011KT 240V300 6000 -RA SCT010 BKN025 10/09 Q1019
18:51 Land
18:51 Wind:275º@011 Knots
18:51 Heading: 288º
18:51 Flight Duration: 01:43
18:51 Landing Weight: 37135 Lbs
18:51 POS N43º 25´ 35´´ W003º 49´ 07´´
18:52 Parking brakes on
18:52 Block to Block Duration: 01:48
18:52 Final Fuel: 919 Lbls
18:52 Spent Fuel: 2590 Lbls
18:52 Flight Length: 369 NM
18:52 TOD Land Length: 70 NM

Exportar CSV

Powered by Drupal - Modified by Danger4k